createdAt,value
2018-03-20T00:00:26.973Z,6.60
2018-03-20T00:01:26.940Z,6.90
2018-03-20T00:02:26.927Z,7.20
2018-03-20T00:03:26.902Z,6.90
2018-03-20T00:04:26.859Z,6.50
2018-03-20T00:05:26.837Z,6.40
2018-03-20T00:06:26.826Z,6.90
2018-03-20T00:07:26.776Z,6.50
2018-03-20T00:08:26.758Z,6.60
2018-03-20T00:09:26.734Z,6.70
2018-03-20T00:10:26.696Z,6.60
2018-03-20T00:11:26.672Z,6.70
2018-03-20T00:12:26.641Z,6.20
2018-03-20T00:13:26.630Z,6.50
2018-03-20T00:14:26.586Z,6.80
2018-03-20T00:15:26.572Z,6.50
2018-03-20T00:16:26.567Z,6.70
2018-03-20T00:17:26.506Z,6.90
2018-03-20T00:18:26.475Z,7.00
2018-03-20T00:19:26.468Z,7.00
2018-03-20T00:20:26.432Z,7.10
2018-03-20T00:21:26.399Z,6.90
2018-03-20T00:22:26.377Z,7.10
2018-03-20T00:23:26.340Z,6.90
2018-03-20T00:24:26.317Z,6.20
2018-03-20T00:25:26.302Z,6.20
2018-03-20T00:26:26.261Z,6.40
2018-03-20T00:27:26.242Z,6.50
2018-03-20T00:28:26.205Z,6.70
2018-03-20T00:29:26.184Z,7.30
2018-03-20T00:30:26.149Z,6.60
2018-03-20T00:31:26.123Z,6.50
2018-03-20T00:32:26.097Z,7.20
2018-03-20T00:33:26.069Z,7.00
2018-03-20T00:34:26.041Z,6.90
2018-03-20T00:35:26.053Z,6.70
2018-03-20T00:36:25.989Z,6.50
2018-03-20T00:37:25.968Z,6.70
2018-03-20T00:38:25.934Z,6.90
2018-03-20T00:39:25.922Z,7.00
2018-03-20T00:40:25.887Z,6.60
2018-03-20T00:41:25.864Z,6.50
2018-03-20T00:42:25.827Z,6.90
2018-03-20T00:43:25.798Z,7.20
2018-03-20T00:44:25.772Z,7.30
2018-03-20T00:45:25.746Z,7.00
2018-03-20T00:46:25.716Z,7.30
2018-03-20T00:47:25.695Z,7.10
2018-03-20T00:48:25.664Z,7.10
2018-03-20T00:49:25.637Z,7.10
2018-03-20T00:50:25.606Z,7.80
2018-03-20T00:51:25.581Z,7.40
2018-03-20T00:52:25.554Z,7.40
2018-03-20T00:53:25.530Z,7.00
2018-03-20T00:54:25.501Z,7.00
2018-03-20T00:55:25.473Z,7.00
2018-03-20T00:58:10.339Z,7.10
2018-03-20T00:59:10.313Z,7.40
2018-03-20T01:00:10.296Z,6.70
2018-03-20T01:01:10.263Z,7.40
2018-03-20T01:02:10.235Z,7.00
2018-03-20T01:03:10.213Z,6.90
2018-03-20T01:04:10.179Z,7.00
2018-03-20T01:05:10.278Z,6.80
2018-03-20T01:06:10.127Z,6.80
2018-03-20T01:07:10.114Z,6.70
2018-03-20T01:08:10.079Z,7.10
2018-03-20T01:09:10.050Z,6.80
2018-03-20T01:10:10.022Z,6.80
2018-03-20T01:11:10.007Z,7.00
2018-03-20T01:12:09.969Z,7.40
2018-03-20T01:13:09.940Z,6.70
2018-03-20T01:14:09.913Z,7.10
2018-03-20T01:15:09.940Z,6.80
2018-03-20T01:16:09.864Z,7.00
2018-03-20T01:17:09.838Z,6.50
2018-03-20T01:18:09.816Z,6.70
2018-03-20T01:19:09.782Z,6.50
2018-03-20T01:20:09.757Z,6.90
2018-03-20T01:21:09.734Z,6.70
2018-03-20T01:22:09.708Z,5.90
2018-03-20T01:23:09.685Z,6.50
2018-03-20T01:24:09.662Z,6.60
2018-03-20T01:25:09.629Z,6.20
2018-03-20T01:26:09.599Z,6.20
2018-03-20T01:27:09.577Z,6.00
2018-03-20T01:28:09.546Z,6.00
2018-03-20T01:29:09.525Z,6.30
2018-03-20T01:30:09.502Z,6.20
2018-03-20T01:31:09.470Z,6.60
2018-03-20T01:32:09.459Z,6.10
2018-03-20T01:33:09.427Z,6.00
2018-03-20T01:34:09.412Z,6.20
2018-03-20T01:35:09.370Z,5.60
2018-03-20T01:36:09.337Z,6.30
2018-03-20T01:37:09.321Z,5.80
2018-03-20T01:38:09.287Z,5.60
2018-03-20T01:39:09.265Z,5.80
2018-03-20T01:40:09.238Z,6.10
2018-03-20T01:41:09.207Z,5.60
2018-03-20T01:42:09.184Z,5.70
2018-03-20T01:43:09.161Z,5.10
2018-03-20T01:44:09.127Z,5.70
2018-03-20T01:45:09.102Z,5.80
2018-03-20T01:46:09.076Z,6.30
2018-03-20T01:47:09.054Z,6.30
2018-03-20T01:48:09.024Z,5.80
2018-03-20T01:49:08.999Z,6.20
2018-03-20T01:50:08.975Z,6.30
2018-03-20T01:51:08.948Z,6.20
2018-03-20T01:52:08.927Z,6.40
2018-03-20T01:53:08.894Z,6.50
2018-03-20T01:54:08.874Z,6.10
2018-03-20T01:55:08.843Z,6.40
2018-03-20T01:56:08.825Z,6.20
2018-03-20T01:57:08.793Z,6.50
2018-03-20T01:58:08.766Z,6.70
2018-03-20T01:59:08.743Z,6.40
2018-03-20T02:00:08.713Z,6.60
2018-03-20T02:01:08.700Z,6.20
2018-03-20T02:02:08.670Z,6.40
2018-03-20T02:03:08.737Z,6.10
2018-03-20T02:04:08.611Z,6.00
2018-03-20T02:05:08.585Z,6.10
2018-03-20T02:06:08.565Z,6.60
2018-03-20T02:07:08.534Z,6.10
2018-03-20T02:08:08.506Z,6.50
2018-03-20T02:09:08.481Z,6.40
2018-03-20T02:10:08.475Z,6.00
2018-03-20T02:11:08.432Z,6.70
2018-03-20T02:12:08.404Z,6.30
2018-03-20T02:13:08.382Z,6.20
2018-03-20T02:14:08.359Z,6.50
2018-03-20T02:15:08.342Z,6.20
2018-03-20T02:16:08.305Z,6.10
2018-03-20T02:17:08.276Z,6.30
2018-03-20T02:18:08.250Z,6.40
2018-03-20T02:19:08.228Z,6.40
2018-03-20T02:20:08.199Z,6.60
2018-03-20T02:21:08.172Z,6.90
2018-03-20T02:22:08.159Z,6.20
2018-03-20T02:23:08.123Z,6.20
2018-03-20T02:24:08.102Z,6.30
2018-03-20T02:25:08.072Z,6.40
2018-03-20T02:26:08.044Z,6.60
2018-03-20T02:27:08.022Z,6.20
2018-03-20T02:28:08.005Z,6.30
2018-03-20T02:29:07.968Z,6.50
2018-03-20T02:30:07.944Z,6.20
2018-03-20T02:31:07.921Z,5.90
2018-03-20T02:32:07.941Z,6.50
2018-03-20T02:33:07.864Z,6.10
2018-03-20T02:34:07.839Z,6.00
2018-03-20T02:35:07.854Z,6.00
2018-03-20T02:36:07.789Z,6.70
2018-03-20T02:37:07.760Z,6.50
2018-03-20T02:38:07.738Z,6.50
2018-03-20T02:39:07.716Z,6.30
2018-03-20T02:40:07.683Z,6.70
2018-03-20T02:41:07.659Z,6.30
2018-03-20T02:42:07.779Z,6.60
2018-03-20T02:43:07.607Z,6.30
2018-03-20T02:44:07.588Z,6.60
2018-03-20T02:45:07.553Z,6.40
2018-03-20T02:46:07.531Z,6.30
2018-03-20T02:47:07.501Z,6.50
2018-03-20T02:48:07.476Z,6.60
2018-03-20T02:49:07.450Z,6.70
2018-03-20T02:50:07.425Z,6.40
2018-03-20T02:51:07.442Z,7.50
2018-03-20T02:52:07.371Z,7.30
2018-03-20T02:53:07.350Z,6.60
2018-03-20T02:54:07.321Z,6.90
2018-03-20T02:55:07.412Z,7.00
2018-03-20T02:56:07.277Z,7.00
2018-03-20T02:57:07.241Z,7.40
2018-03-20T02:58:07.282Z,6.80
2018-03-20T02:59:07.191Z,7.60
2018-03-20T03:00:07.170Z,6.80
2018-03-20T03:01:07.149Z,7.70
2018-03-20T03:02:07.116Z,7.30
2018-03-20T03:03:07.092Z,7.80
2018-03-20T03:04:07.060Z,7.70
2018-03-20T03:05:07.036Z,7.40
2018-03-20T03:06:07.010Z,8.20
2018-03-20T03:07:06.985Z,7.80
2018-03-20T03:08:06.958Z,8.50
2018-03-20T03:09:06.931Z,8.30
2018-03-20T03:10:06.907Z,8.20
2018-03-20T03:11:06.892Z,8.10
2018-03-20T03:12:06.858Z,9.10
2018-03-20T03:13:06.834Z,8.80
2018-03-20T03:14:06.812Z,9.00
2018-03-20T03:15:06.777Z,9.60
2018-03-20T03:16:06.751Z,9.20
2018-03-20T03:17:06.750Z,9.50
2018-03-20T03:18:06.698Z,9.60
2018-03-20T03:19:06.670Z,9.40
2018-03-20T03:20:06.653Z,9.30
2018-03-20T03:21:06.618Z,9.90
2018-03-20T03:22:06.591Z,9.30
2018-03-20T03:23:06.567Z,9.80
2018-03-20T03:24:06.564Z,9.60
2018-03-20T03:25:06.514Z,9.60
2018-03-20T03:26:06.486Z,9.60
2018-03-20T03:27:06.537Z,9.70
2018-03-20T03:28:06.436Z,9.80
2018-03-20T03:29:06.410Z,10.30
2018-03-20T03:30:06.388Z,9.90
2018-03-20T03:31:06.355Z,9.50
2018-03-20T03:32:06.330Z,10.30
2018-03-20T03:33:06.305Z,9.80
2018-03-20T03:34:06.278Z,9.90
2018-03-20T03:35:06.253Z,10.10
2018-03-20T03:36:06.225Z,10.00
2018-03-20T03:37:06.262Z,9.50
2018-03-20T03:38:06.176Z,9.90
2018-03-20T03:39:06.153Z,9.40
2018-03-20T03:40:06.121Z,9.80
2018-03-20T03:41:06.095Z,10.20
2018-03-20T03:42:06.069Z,9.40
2018-03-20T03:43:06.045Z,10.50
2018-03-20T03:44:06.031Z,10.00
2018-03-20T03:45:05.995Z,10.50
2018-03-20T03:46:05.965Z,10.00
2018-03-20T03:47:05.978Z,11.00
2018-03-20T03:48:05.914Z,10.20
2018-03-20T03:49:05.887Z,10.20
2018-03-20T03:50:05.862Z,10.20
2018-03-20T03:51:05.839Z,10.00
2018-03-20T03:52:05.810Z,10.20
2018-03-20T03:53:05.784Z,9.50
2018-03-20T03:54:05.759Z,9.60
2018-03-20T03:55:05.730Z,10.30
2018-03-20T03:56:05.709Z,10.60
2018-03-20T03:57:05.731Z,10.30
2018-03-20T03:58:05.658Z,11.00
2018-03-20T03:59:05.633Z,11.10
2018-03-20T04:00:05.606Z,10.80
2018-03-20T04:01:05.578Z,10.60
2018-03-20T04:02:05.550Z,11.00
2018-03-20T04:03:05.531Z,11.10
2018-03-20T04:04:05.501Z,11.10
2018-03-20T04:05:05.478Z,11.00
2018-03-20T04:06:05.452Z,10.80
2018-03-20T04:07:05.623Z,11.10
2018-03-20T04:08:05.396Z,10.90
2018-03-20T04:09:05.371Z,11.10
2018-03-20T04:10:05.346Z,11.60
2018-03-20T04:11:05.322Z,11.00
2018-03-20T04:12:05.329Z,11.40
2018-03-20T04:13:05.267Z,11.20
2018-03-20T04:14:05.258Z,11.80
2018-03-20T04:15:05.232Z,12.20
2018-03-20T04:16:05.195Z,11.30
2018-03-20T04:17:05.173Z,11.40
2018-03-20T04:18:05.141Z,11.50
2018-03-20T04:19:05.114Z,12.30
2018-03-20T04:20:05.091Z,11.90
2018-03-20T04:21:05.065Z,12.10
2018-03-20T04:22:05.039Z,12.80
2018-03-20T04:23:05.039Z,12.10
2018-03-20T04:24:04.988Z,11.70
2018-03-20T04:25:04.964Z,11.70
2018-03-20T04:26:04.937Z,12.10
2018-03-20T04:27:04.914Z,12.80
2018-03-20T04:28:04.942Z,12.60
2018-03-20T04:29:04.864Z,12.00
2018-03-20T04:30:04.836Z,13.20
2018-03-20T04:31:04.813Z,11.90
2018-03-20T04:32:04.786Z,11.80
2018-03-20T04:33:04.760Z,12.60
2018-03-20T04:34:04.735Z,12.40
2018-03-20T04:35:04.707Z,11.50
2018-03-20T04:36:04.698Z,12.20
2018-03-20T04:37:04.656Z,12.60
2018-03-20T04:38:04.636Z,12.50
2018-03-20T04:39:04.670Z,11.40
2018-03-20T04:40:04.590Z,12.00
2018-03-20T04:41:04.558Z,12.50
2018-03-20T04:42:04.533Z,12.40
2018-03-20T04:43:04.507Z,12.30
2018-03-20T04:44:04.482Z,12.60
2018-03-20T04:45:04.458Z,13.00
2018-03-20T04:46:04.431Z,12.40
2018-03-20T04:47:04.405Z,12.50
2018-03-20T04:48:04.381Z,12.60
2018-03-20T04:49:04.354Z,12.60
2018-03-20T04:50:04.331Z,13.00
2018-03-20T04:51:04.308Z,12.60
2018-03-20T04:52:04.281Z,13.10
2018-03-20T04:53:04.255Z,12.60
2018-03-20T04:54:04.346Z,13.50
2018-03-20T04:55:04.215Z,13.00
2018-03-20T04:56:04.174Z,13.00
2018-03-20T04:57:04.149Z,13.30
2018-03-20T04:58:04.125Z,12.40
2018-03-20T04:59:04.101Z,12.50
2018-03-20T05:00:04.075Z,13.10
2018-03-20T05:01:04.050Z,12.90
2018-03-20T05:02:04.153Z,13.00
2018-03-20T05:03:03.999Z,13.70
2018-03-20T05:04:03.977Z,13.70
2018-03-20T05:05:04.056Z,13.00
2018-03-20T05:06:03.921Z,14.20
2018-03-20T05:07:03.899Z,13.80
2018-03-20T05:08:03.872Z,13.90
2018-03-20T05:09:03.849Z,13.40
2018-03-20T05:10:03.824Z,13.30
2018-03-20T05:11:03.798Z,12.80
2018-03-20T05:12:03.774Z,13.90
2018-03-20T05:13:03.745Z,13.80
2018-03-20T05:14:03.718Z,13.70
2018-03-20T05:15:03.698Z,13.80
2018-03-20T05:16:03.667Z,13.60
2018-03-20T05:17:03.648Z,14.30
2018-03-20T05:18:03.620Z,15.10
2018-03-20T05:19:03.593Z,15.20
2018-03-20T05:20:03.568Z,15.80
2018-03-20T05:21:03.540Z,16.70
2018-03-20T05:22:03.518Z,16.80
2018-03-20T05:23:03.492Z,16.70
2018-03-20T05:24:03.570Z,17.60
2018-03-20T05:25:03.443Z,16.80
2018-03-20T05:26:03.413Z,17.40
2018-03-20T05:27:03.389Z,17.80
2018-03-20T05:28:03.367Z,18.20
2018-03-20T05:29:03.336Z,18.70
2018-03-20T05:30:03.314Z,19.60
2018-03-20T05:31:03.291Z,18.90
2018-03-20T05:32:03.266Z,19.10
2018-03-20T05:33:03.236Z,18.50
2018-03-20T05:34:03.210Z,18.40
2018-03-20T05:35:03.192Z,19.70
2018-03-20T05:36:03.160Z,20.20
2018-03-20T05:37:03.140Z,19.50
2018-03-20T05:38:03.107Z,19.80
2018-03-20T05:39:03.085Z,20.10
2018-03-20T05:40:03.060Z,18.90
2018-03-20T05:41:03.035Z,18.20
2018-03-20T05:42:03.008Z,18.70
2018-03-20T05:43:02.984Z,18.50
2018-03-20T05:44:02.969Z,18.00
2018-03-20T05:45:02.939Z,20.70
2018-03-20T05:46:03.020Z,18.60
2018-03-20T05:47:02.884Z,17.90
2018-03-20T05:48:02.860Z,18.60
2018-03-20T05:49:02.841Z,17.90
2018-03-20T05:50:02.809Z,17.80
2018-03-20T05:51:02.783Z,17.30
2018-03-20T05:52:02.758Z,17.60
2018-03-20T05:53:02.732Z,17.30
2018-03-20T05:54:02.705Z,16.40
2018-03-20T05:55:02.688Z,14.90
2018-03-20T05:56:02.655Z,14.50
2018-03-20T05:57:02.637Z,15.10
2018-03-20T05:58:02.610Z,14.30
2018-03-20T05:59:02.606Z,13.60
2018-03-20T06:00:02.565Z,14.30
2018-03-20T06:01:02.532Z,13.60
2018-03-20T06:02:02.556Z,13.00
2018-03-20T06:03:02.481Z,12.30
2018-03-20T06:04:02.456Z,12.40
2018-03-20T06:05:02.483Z,11.10
2018-03-20T06:06:02.406Z,10.80
2018-03-20T06:07:02.381Z,12.10
2018-03-20T06:08:02.369Z,11.90
2018-03-20T06:09:02.330Z,10.90
2018-03-20T06:10:02.313Z,10.70
2018-03-20T06:11:02.283Z,10.50
2018-03-20T06:12:02.258Z,10.90
2018-03-20T06:13:02.235Z,11.20
2018-03-20T06:14:02.216Z,9.20
2018-03-20T06:15:02.195Z,9.00
2018-03-20T06:16:02.166Z,10.20
2018-03-20T06:17:02.135Z,10.80
2018-03-20T06:18:02.108Z,10.60
2018-03-20T06:19:02.091Z,10.00
2018-03-20T06:20:02.060Z,9.30
2018-03-20T06:21:02.031Z,8.80
2018-03-20T06:22:02.183Z,10.20
2018-03-20T06:23:01.984Z,9.10
2018-03-20T06:24:01.964Z,8.70
2018-03-20T06:25:01.932Z,8.60
2018-03-20T06:26:01.916Z,9.50
2018-03-20T06:27:01.882Z,9.80
2018-03-20T06:28:01.857Z,10.10
2018-03-20T06:29:01.833Z,9.00
2018-03-20T06:30:01.818Z,10.60
2018-03-20T06:31:01.783Z,9.50
2018-03-20T06:32:01.762Z,9.80
2018-03-20T06:33:01.737Z,10.00
2018-03-20T06:34:01.709Z,9.60
2018-03-20T06:35:01.682Z,9.20
2018-03-20T06:36:01.658Z,9.80
2018-03-20T06:37:01.635Z,9.00
2018-03-20T06:38:01.617Z,8.90
2018-03-20T06:39:01.582Z,8.80
2018-03-20T06:40:01.561Z,9.80
2018-03-20T06:41:01.537Z,9.40
2018-03-20T06:42:01.513Z,10.00
2018-03-20T06:43:01.485Z,9.70
2018-03-20T06:44:01.459Z,8.70
2018-03-20T06:45:01.436Z,8.50
2018-03-20T06:46:01.409Z,8.50
2018-03-20T06:47:01.389Z,8.90
2018-03-20T06:48:01.365Z,8.70
2018-03-20T06:49:01.355Z,9.10
2018-03-20T06:50:01.321Z,9.60
2018-03-20T06:51:01.302Z,8.20
2018-03-20T06:52:01.271Z,8.40
2018-03-20T06:53:01.237Z,9.70
2018-03-20T06:54:01.216Z,8.70
2018-03-20T06:55:01.189Z,9.20
2018-03-20T06:56:01.166Z,9.60
2018-03-20T06:57:01.138Z,8.30
2018-03-20T06:58:01.118Z,8.30
2018-03-20T06:59:01.112Z,6.90
2018-03-20T07:00:01.104Z,8.70
2018-03-20T07:01:01.041Z,7.60
2018-03-20T07:02:01.015Z,7.30
2018-03-20T07:03:00.990Z,7.20
2018-03-20T07:04:00.966Z,7.90
2018-03-20T07:05:00.939Z,8.20
2018-03-20T07:06:00.916Z,8.30
2018-03-20T07:07:00.898Z,7.20
2018-03-20T07:08:00.865Z,7.80
2018-03-20T07:09:00.851Z,7.10
2018-03-20T07:10:00.817Z,8.40
2018-03-20T07:11:00.841Z,8.30
2018-03-20T07:12:00.768Z,7.80
2018-03-20T07:13:00.743Z,8.90
2018-03-20T07:14:00.761Z,7.30
2018-03-20T07:15:00.704Z,7.50
2018-03-20T07:16:00.671Z,7.90
2018-03-20T07:17:00.645Z,7.60
2018-03-20T07:18:00.627Z,7.20
2018-03-20T07:19:00.595Z,7.70
2018-03-20T07:20:00.572Z,7.50
2018-03-20T07:21:00.546Z,7.70
2018-03-20T07:22:00.531Z,7.30
2018-03-20T07:23:00.501Z,8.00
2018-03-20T07:24:00.474Z,10.50
2018-03-20T07:25:00.451Z,7.60
2018-03-20T07:26:00.450Z,7.40
2018-03-20T07:27:00.405Z,7.50
2018-03-20T07:28:00.377Z,8.30
2018-03-20T07:29:00.351Z,7.60
2018-03-20T07:30:00.333Z,7.10
2018-03-20T07:31:00.301Z,7.20
2018-03-20T07:32:00.278Z,6.90
2018-03-20T07:33:00.300Z,8.00
2018-03-20T07:34:00.239Z,7.30
2018-03-20T07:35:00.206Z,7.20
2018-03-20T07:36:00.183Z,7.40
2018-03-20T07:37:00.157Z,7.50
2018-03-20T07:38:00.141Z,6.20
2018-03-20T07:39:00.110Z,6.50
2018-03-20T07:40:00.092Z,6.90
2018-03-20T07:41:00.061Z,6.50
2018-03-20T07:42:00.040Z,6.70
2018-03-20T07:43:00.017Z,6.50
2018-03-20T07:43:59.989Z,6.20
2018-03-20T07:44:59.964Z,6.00
2018-03-20T07:45:59.942Z,6.50
2018-03-20T07:46:59.919Z,6.30
2018-03-20T07:47:59.907Z,6.70
2018-03-20T07:48:59.873Z,6.50
2018-03-20T07:49:59.848Z,5.30
2018-03-20T07:50:59.824Z,5.70
2018-03-20T07:51:59.799Z,6.60
2018-03-20T07:52:59.780Z,5.70
2018-03-20T07:53:59.754Z,6.60
2018-03-20T07:54:59.751Z,5.50
2018-03-20T07:55:59.709Z,5.60
2018-03-20T07:56:59.681Z,5.10
2018-03-20T07:57:59.668Z,5.70
2018-03-20T07:58:59.642Z,5.70
2018-03-20T07:59:59.612Z,5.40
2018-03-20T08:00:59.590Z,5.80
2018-03-20T08:01:59.577Z,6.00
2018-03-20T08:02:59.541Z,5.00
2018-03-20T08:03:59.530Z,5.30
2018-03-20T08:04:59.519Z,5.40
2018-03-20T08:05:59.475Z,5.10
2018-03-20T08:06:59.455Z,5.20
2018-03-20T08:07:59.431Z,5.00
2018-03-20T08:08:59.407Z,5.20
2018-03-20T08:09:59.384Z,5.10
2018-03-20T08:10:59.369Z,5.60
2018-03-20T08:11:59.340Z,5.30
2018-03-20T08:12:59.315Z,5.10
2018-03-20T08:13:59.288Z,5.10
2018-03-20T08:14:59.362Z,4.90
2018-03-20T08:15:59.248Z,5.00
2018-03-20T08:16:59.222Z,5.10
2018-03-20T08:17:59.202Z,4.90
2018-03-20T08:18:59.181Z,4.50
2018-03-20T08:19:59.174Z,4.60
2018-03-20T08:20:59.135Z,5.30
2018-03-20T08:21:59.114Z,4.50
2018-03-20T08:22:59.094Z,4.20
2018-03-20T08:23:59.069Z,4.40
2018-03-20T08:24:59.050Z,5.00
2018-03-20T08:25:59.028Z,4.70
2018-03-20T08:26:59.009Z,4.30
2018-03-20T08:27:59.082Z,4.50
2018-03-20T08:28:58.973Z,4.40
2018-03-20T08:29:58.954Z,3.90
2018-03-20T08:30:59.034Z,4.50
2018-03-20T08:31:58.914Z,3.60
2018-03-20T08:32:58.896Z,4.00
2018-03-20T08:33:58.875Z,4.10
2018-03-20T08:34:58.854Z,4.00
2018-03-20T08:35:58.835Z,3.90
2018-03-20T08:36:58.814Z,3.70
2018-03-20T08:37:58.803Z,4.40
2018-03-20T08:38:58.792Z,3.40
2018-03-20T08:39:58.763Z,3.80
2018-03-20T08:40:58.742Z,3.50
2018-03-20T08:41:58.726Z,3.50
2018-03-20T08:42:58.715Z,3.60
2018-03-20T08:43:58.692Z,3.70
2018-03-20T08:44:58.674Z,3.20
2018-03-20T08:45:58.655Z,3.70
2018-03-20T08:46:58.636Z,3.30
2018-03-20T08:47:58.630Z,3.70
2018-03-20T08:48:58.607Z,3.30
2018-03-20T08:49:58.645Z,3.50
2018-03-20T08:50:58.583Z,3.30
2018-03-20T08:51:58.566Z,3.10
2018-03-20T08:52:58.550Z,3.30
2018-03-20T08:53:58.531Z,3.00
2018-03-20T08:54:58.520Z,3.10
2018-03-20T08:55:58.501Z,3.20
2018-03-20T08:56:58.488Z,3.20
2018-03-20T08:57:58.475Z,3.60
2018-03-20T08:58:58.457Z,3.40
2018-03-20T08:59:58.442Z,3.10
2018-03-20T09:00:58.446Z,3.40
2018-03-20T09:01:58.416Z,3.10
2018-03-20T09:02:58.410Z,2.90
2018-03-20T09:03:58.389Z,3.10
2018-03-20T09:04:58.374Z,3.20
2018-03-20T09:05:58.366Z,2.90
2018-03-20T09:06:58.349Z,2.80
2018-03-20T09:07:58.342Z,2.40
2018-03-20T09:08:58.324Z,2.60
2018-03-20T09:09:58.310Z,2.90
2018-03-20T09:10:58.312Z,2.50
2018-03-20T09:11:58.284Z,2.90
2018-03-20T09:12:58.272Z,2.70
2018-03-20T09:13:58.258Z,2.80
2018-03-20T09:14:58.257Z,2.70
2018-03-20T09:15:58.243Z,2.60
2018-03-20T09:16:58.223Z,2.50
2018-03-20T09:17:58.257Z,2.80
2018-03-20T09:18:58.198Z,2.90
2018-03-20T09:19:58.187Z,2.80
2018-03-20T09:20:58.178Z,3.30
2018-03-20T09:21:58.169Z,2.40
2018-03-20T09:22:58.163Z,2.80
2018-03-20T09:23:58.165Z,3.20
2018-03-20T09:24:58.133Z,3.30
2018-03-20T09:25:58.128Z,2.40
2018-03-20T09:26:58.167Z,2.20
2018-03-20T09:27:58.101Z,2.60
2018-03-20T09:28:58.090Z,2.40
2018-03-20T09:29:58.079Z,2.50
2018-03-20T09:30:58.079Z,2.80
2018-03-20T09:31:58.067Z,2.60
2018-03-20T09:32:58.050Z,3.30
2018-03-20T09:33:58.073Z,2.50
2018-03-20T09:34:58.037Z,2.40
2018-03-20T09:35:58.026Z,2.30
2018-03-20T09:36:58.020Z,2.70
2018-03-20T09:37:58.007Z,2.40
2018-03-20T09:38:57.995Z,2.30
2018-03-20T09:39:57.994Z,2.40
2018-03-20T09:40:58.052Z,2.40
2018-03-20T09:41:57.982Z,2.00
2018-03-20T09:42:57.958Z,2.20
2018-03-20T09:43:57.957Z,2.40
2018-03-20T09:44:57.938Z,2.50
2018-03-20T09:45:57.928Z,2.00
2018-03-20T09:46:57.924Z,2.30
2018-03-20T09:47:57.927Z,2.20
2018-03-20T09:48:57.936Z,2.20
2018-03-20T09:49:57.894Z,2.60
2018-03-20T09:50:57.886Z,2.20
2018-03-20T09:51:57.877Z,2.30
2018-03-20T09:52:57.867Z,2.10
2018-03-20T09:53:57.889Z,2.10
2018-03-20T09:54:57.853Z,2.40
2018-03-20T09:55:57.845Z,5.00
2018-03-20T09:56:57.837Z,2.10
2018-03-20T09:57:57.827Z,2.40
2018-03-20T09:58:57.824Z,1.80
2018-03-20T09:59:57.811Z,1.90
2018-03-20T10:00:57.804Z,1.80
2018-03-20T10:01:57.792Z,2.20
2018-03-20T10:02:57.782Z,2.00
2018-03-20T10:03:57.785Z,1.80
2018-03-20T10:04:57.781Z,1.90
2018-03-20T10:05:57.760Z,1.90
2018-03-20T10:06:57.799Z,2.30
2018-03-20T10:07:57.741Z,2.20
2018-03-20T10:08:57.732Z,1.90
2018-03-20T10:09:57.759Z,1.80
2018-03-20T10:10:57.712Z,2.30
2018-03-20T10:11:57.706Z,2.10
2018-03-20T10:12:57.696Z,2.30
2018-03-20T10:13:57.695Z,2.60
2018-03-20T10:14:57.691Z,2.00
2018-03-20T10:15:57.674Z,1.90
2018-03-20T10:16:57.660Z,1.90
2018-03-20T10:17:57.651Z,1.80
2018-03-20T10:18:57.647Z,2.00
2018-03-20T10:19:57.632Z,2.10
2018-03-20T10:20:57.624Z,2.00
2018-03-20T10:21:57.621Z,2.00
2018-03-20T10:22:57.701Z,2.20
2018-03-20T10:23:57.600Z,2.30
2018-03-20T10:24:57.628Z,2.00
2018-03-20T10:25:57.580Z,2.00
2018-03-20T10:26:57.572Z,2.10
2018-03-20T10:27:57.563Z,1.70
2018-03-20T10:28:57.556Z,1.80
2018-03-20T10:29:57.543Z,2.10
2018-03-20T10:30:57.542Z,1.80
2018-03-20T10:31:57.531Z,2.00
2018-03-20T10:32:57.521Z,1.90
2018-03-20T10:33:57.526Z,2.00
2018-03-20T10:34:57.502Z,2.00
2018-03-20T10:35:57.496Z,2.10
2018-03-20T10:36:57.483Z,2.50
2018-03-20T10:37:57.473Z,2.20
2018-03-20T10:38:57.474Z,1.70
2018-03-20T10:39:57.456Z,2.20
2018-03-20T10:40:57.453Z,2.00
2018-03-20T10:41:57.444Z,2.30
2018-03-20T10:42:57.431Z,1.70
2018-03-20T10:43:57.428Z,1.90
2018-03-20T10:44:57.418Z,2.00
2018-03-20T10:45:57.422Z,2.70
2018-03-20T10:46:57.391Z,1.90
2018-03-20T10:47:57.388Z,1.90
2018-03-20T10:48:57.413Z,2.00
2018-03-20T10:49:57.370Z,2.20
2018-03-20T10:50:57.359Z,1.80
2018-03-20T10:51:57.362Z,1.70
2018-03-20T10:52:57.340Z,2.10
2018-03-20T10:53:57.374Z,2.10
2018-03-20T10:54:57.321Z,2.10
2018-03-20T10:55:57.312Z,1.70
2018-03-20T10:56:57.314Z,2.10
2018-03-20T10:57:57.297Z,3.10
2018-03-20T10:58:57.294Z,2.70
2018-03-20T10:59:57.279Z,1.80
2018-03-20T11:00:57.272Z,2.20
2018-03-20T11:01:57.259Z,1.80
2018-03-20T11:02:57.256Z,1.90
2018-03-20T11:03:57.245Z,1.70
2018-03-20T11:04:57.235Z,1.90
2018-03-20T11:05:57.229Z,1.70
2018-03-20T11:06:57.218Z,1.90
2018-03-20T11:07:57.205Z,1.80
2018-03-20T11:08:57.196Z,1.90
2018-03-20T11:09:57.189Z,1.70
2018-03-20T11:10:57.180Z,1.90
2018-03-20T11:11:57.174Z,1.40
2018-03-20T11:12:57.266Z,1.90
2018-03-20T11:13:57.155Z,2.50
2018-03-20T11:14:57.169Z,2.00
2018-03-20T11:15:57.138Z,1.80
2018-03-20T11:16:57.124Z,2.00
2018-03-20T11:17:57.123Z,1.90
2018-03-20T11:18:57.108Z,2.50
2018-03-20T11:19:57.098Z,2.20
2018-03-20T11:20:57.088Z,1.90
2018-03-20T11:21:57.086Z,1.90
2018-03-20T11:22:57.070Z,1.70
2018-03-20T11:23:57.063Z,1.70
2018-03-20T11:24:57.051Z,1.80
2018-03-20T11:25:57.042Z,1.70
2018-03-20T11:26:57.032Z,1.90
2018-03-20T11:27:57.025Z,2.10
2018-03-20T11:28:57.028Z,1.70
2018-03-20T11:29:57.042Z,1.70
2018-03-20T11:30:56.994Z,1.80
2018-03-20T11:31:56.986Z,2.00
2018-03-20T11:32:56.981Z,1.80
2018-03-20T11:33:57.112Z,1.80
2018-03-20T11:34:56.971Z,1.60
2018-03-20T11:35:56.964Z,1.80
2018-03-20T11:36:57.042Z,1.80
2018-03-20T11:37:56.935Z,1.50
2018-03-20T11:38:56.928Z,1.60
2018-03-20T11:39:56.920Z,1.30
2018-03-20T11:40:56.903Z,2.00
2018-03-20T11:41:56.893Z,1.60
2018-03-20T11:42:56.882Z,2.00
2018-03-20T11:43:56.905Z,1.90
2018-03-20T11:44:56.864Z,1.90
2018-03-20T11:45:56.852Z,1.90
2018-03-20T11:46:56.858Z,1.50
2018-03-20T11:47:56.835Z,1.70
2018-03-20T11:48:56.822Z,1.50
2018-03-20T11:49:56.837Z,1.30
2018-03-20T11:50:56.800Z,1.70
2018-03-20T11:51:56.792Z,1.70
2018-03-20T11:52:56.779Z,1.30
2018-03-20T11:53:56.768Z,1.50
2018-03-20T11:54:56.764Z,1.60
2018-03-20T11:55:56.756Z,1.20
2018-03-20T11:56:56.733Z,1.70
2018-03-20T11:57:56.720Z,1.80
2018-03-20T11:58:56.709Z,1.50
2018-03-20T11:59:56.699Z,1.50
2018-03-20T12:00:56.695Z,1.60
2018-03-20T12:01:56.680Z,1.50
2018-03-20T12:02:56.722Z,1.50
2018-03-20T12:03:56.652Z,2.20
2018-03-20T12:04:56.640Z,2.10
2018-03-20T12:05:56.729Z,1.70
2018-03-20T12:06:56.609Z,1.50
2018-03-20T12:07:56.596Z,1.60
2018-03-20T12:08:56.581Z,1.50
2018-03-20T12:09:56.567Z,1.60
2018-03-20T12:10:56.561Z,1.60
2018-03-20T12:11:56.545Z,1.40
2018-03-20T12:12:56.526Z,1.60
2018-03-20T12:13:56.511Z,1.90
2018-03-20T12:14:56.511Z,2.10
2018-03-20T12:15:56.486Z,1.70
2018-03-20T12:16:56.474Z,1.60
2018-03-20T12:17:56.462Z,1.40
2018-03-20T12:18:56.436Z,1.70
2018-03-20T12:19:56.423Z,1.30
2018-03-20T12:20:56.409Z,1.40
2018-03-20T12:21:56.389Z,2.20
2018-03-20T12:22:56.390Z,1.40
2018-03-20T12:23:56.398Z,1.50
2018-03-20T12:24:56.345Z,1.50
2018-03-20T12:25:56.326Z,1.50
2018-03-20T12:26:56.341Z,1.50
2018-03-20T12:27:56.295Z,1.50
2018-03-20T12:28:56.274Z,1.50
2018-03-20T12:29:56.261Z,1.70
2018-03-20T12:30:56.242Z,1.80
2018-03-20T12:31:56.354Z,1.60
2018-03-20T12:32:56.207Z,1.70
2018-03-20T12:33:56.191Z,1.80
2018-03-20T12:34:56.174Z,1.70
2018-03-20T12:35:56.157Z,1.60
2018-03-20T12:36:56.133Z,1.70
2018-03-20T12:37:56.115Z,1.60
2018-03-20T12:38:56.096Z,1.60
2018-03-20T12:39:56.078Z,1.70
2018-03-20T12:40:56.064Z,1.90
2018-03-20T12:41:56.051Z,1.60
2018-03-20T12:42:56.027Z,1.40
2018-03-20T12:43:56.006Z,2.10
2018-03-20T12:44:55.985Z,1.70
2018-03-20T12:45:55.972Z,1.90
2018-03-20T12:46:55.956Z,1.90
2018-03-20T12:47:55.934Z,1.50
2018-03-20T12:48:56.000Z,1.60
2018-03-20T12:49:55.892Z,1.80
2018-03-20T12:50:55.871Z,1.80
2018-03-20T12:51:55.907Z,1.60
2018-03-20T12:52:55.850Z,1.60
2018-03-20T12:53:55.817Z,1.80
2018-03-20T12:54:55.805Z,2.00
2018-03-20T12:55:55.785Z,1.70
2018-03-20T12:56:55.761Z,1.50
2018-03-20T12:57:55.742Z,1.70
2018-03-20T12:58:55.721Z,1.50
2018-03-20T12:59:55.710Z,2.10
2018-03-20T13:00:55.687Z,1.60
2018-03-20T13:01:55.662Z,1.80
2018-03-20T13:02:55.644Z,1.70
2018-03-20T13:03:55.630Z,1.40
2018-03-20T13:04:55.670Z,1.60
2018-03-20T13:05:55.588Z,1.70
2018-03-20T13:06:55.571Z,1.50
2018-03-20T13:07:55.595Z,1.50
2018-03-20T13:08:55.529Z,1.60
2018-03-20T13:09:55.512Z,1.40
2018-03-20T13:10:55.496Z,1.40
2018-03-20T13:11:55.651Z,1.40
2018-03-20T13:12:55.453Z,1.50
2018-03-20T13:13:55.441Z,1.50
2018-03-20T13:14:55.418Z,1.50